sensor_id;sensor_type;location;lat;lon;timestamp;temperature;humidity
13835;DHT22;6988;52.614;13.500;2022-08-19T00:03:18;20.90;99.90
13835;DHT22;6988;52.614;13.500;2022-08-19T00:08:10;20.80;99.90
13835;DHT22;6988;52.614;13.500;2022-08-19T00:13:02;20.80;99.90
13835;DHT22;6988;52.614;13.500;2022-08-19T00:17:55;20.90;99.90
13835;DHT22;6988;52.614;13.500;2022-08-19T00:22:47;20.90;99.90
13835;DHT22;6988;52.614;13.500;2022-08-19T00:27:39;20.90;99.90
13835;DHT22;6988;52.614;13.500;2022-08-19T00:32:31;20.90;99.90
13835;DHT22;6988;52.614;13.500;2022-08-19T00:37:26;21.00;99.90
13835;DHT22;6988;52.614;13.500;2022-08-19T00:42:19;21.00;99.90
13835;DHT22;6988;52.614;13.500;2022-08-19T00:47:13;21.10;99.90
13835;DHT22;6988;52.614;13.500;2022-08-19T00:52:08;21.10;99.90
13835;DHT22;6988;52.614;13.500;2022-08-19T00:57:09;21.20;99.90
13835;DHT22;6988;52.614;13.500;2022-08-19T01:02:04;21.10;99.90
13835;DHT22;6988;52.614;13.500;2022-08-19T01:06:56;21.10;99.90
13835;DHT22;6988;52.614;13.500;2022-08-19T01:11:50;21.00;99.90
13835;DHT22;6988;52.614;13.500;2022-08-19T01:16:45;21.00;99.90
13835;DHT22;6988;52.614;13.500;2022-08-19T01:21:42;21.00;99.90
13835;DHT22;6988;52.614;13.500;2022-08-19T01:26:42;21.00;99.90
13835;DHT22;6988;52.614;13.500;2022-08-19T01:31:35;21.00;99.90
13835;DHT22;6988;52.614;13.500;2022-08-19T01:36:31;21.00;99.90
13835;DHT22;6988;52.614;13.500;2022-08-19T01:41:24;20.90;99.90
13835;DHT22;6988;52.614;13.500;2022-08-19T01:46:18;20.90;99.90
13835;DHT22;6988;52.614;13.500;2022-08-19T01:51:11;20.90;99.90
13835;DHT22;6988;52.614;13.500;2022-08-19T01:56:04;20.90;99.90
13835;DHT22;6988;52.614;13.500;2022-08-19T02:00:58;20.90;99.90
13835;DHT22;6988;52.614;13.500;2022-08-19T02:05:55;20.90;99.90
13835;DHT22;6988;52.614;13.500;2022-08-19T02:10:49;20.80;99.90
13835;DHT22;6988;52.614;13.500;2022-08-19T02:15:41;20.80;99.90
13835;DHT22;6988;52.614;13.500;2022-08-19T02:20:33;20.70;99.90
13835;DHT22;6988;52.614;13.500;2022-08-19T02:25:27;20.60;99.90
13835;DHT22;6988;52.614;13.500;2022-08-19T02:30:20;20.50;99.90
13835;DHT22;6988;52.614;13.500;2022-08-19T02:35:13;20.40;99.90
13835;DHT22;6988;52.614;13.500;2022-08-19T02:40:06;20.40;99.90
13835;DHT22;6988;52.614;13.500;2022-08-19T02:45:00;20.40;99.90
13835;DHT22;6988;52.614;13.500;2022-08-19T02:49:52;20.30;99.90
13835;DHT22;6988;52.614;13.500;2022-08-19T02:54:43;20.30;99.90
13835;DHT22;6988;52.614;13.500;2022-08-19T02:59:36;20.30;99.90
13835;DHT22;6988;52.614;13.500;2022-08-19T03:04:29;20.20;99.90
13835;DHT22;6988;52.614;13.500;2022-08-19T03:09:21;20.30;99.90
13835;DHT22;6988;52.614;13.500;2022-08-19T03:14:13;20.20;99.90
13835;DHT22;6988;52.614;13.500;2022-08-19T03:19:05;20.20;99.90
13835;DHT22;6988;52.614;13.500;2022-08-19T03:24:00;20.20;99.90
13835;DHT22;6988;52.614;13.500;2022-08-19T03:28:53;20.20;99.90
13835;DHT22;6988;52.614;13.500;2022-08-19T03:33:45;20.20;99.90
13835;DHT22;6988;52.614;13.500;2022-08-19T03:38:39;20.20;99.90
13835;DHT22;6988;52.614;13.500;2022-08-19T03:43:35;20.20;99.90
13835;DHT22;6988;52.614;13.500;2022-08-19T03:48:27;20.10;99.90
13835;DHT22;6988;52.614;13.500;2022-08-19T03:53:20;20.10;99.90
13835;DHT22;6988;52.614;13.500;2022-08-19T03:58:12;20.00;99.90
13835;DHT22;6988;52.614;13.500;2022-08-19T04:03:05;20.00;99.90
13835;DHT22;6988;52.614;13.500;2022-08-19T04:07:58;20.00;99.90
13835;DHT22;6988;52.614;13.500;2022-08-19T04:12:50;20.10;99.90
13835;DHT22;6988;52.614;13.500;2022-08-19T04:17:42;20.10;99.90
13835;DHT22;6988;52.614;13.500;2022-08-19T04:22:35;20.00;99.90
13835;DHT22;6988;52.614;13.500;2022-08-19T04:27:27;20.10;99.90
13835;DHT22;6988;52.614;13.500;2022-08-19T04:32:19;20.00;99.90
13835;DHT22;6988;52.614;13.500;2022-08-19T04:37:11;20.00;99.90
13835;DHT22;6988;52.614;13.500;2022-08-19T04:42:04;20.10;99.90
13835;DHT22;6988;52.614;13.500;2022-08-19T04:47:14;20.10;99.90
13835;DHT22;6988;52.614;13.500;2022-08-19T04:52:06;20.00;99.90
13835;DHT22;6988;52.614;13.500;2022-08-19T04:56:58;20.00;99.90
13835;DHT22;6988;52.614;13.500;2022-08-19T05:01:51;20.00;99.90
13835;DHT22;6988;52.614;13.500;2022-08-19T05:06:43;20.10;99.90
13835;DHT22;6988;52.614;13.500;2022-08-19T05:11:36;20.10;99.90
13835;DHT22;6988;52.614;13.500;2022-08-19T05:16:29;20.20;99.90
13835;DHT22;6988;52.614;13.500;2022-08-19T05:21:22;20.20;99.90
13835;DHT22;6988;52.614;13.500;2022-08-19T05:26:32;20.30;99.90
13835;DHT22;6988;52.614;13.500;2022-08-19T05:31:23;20.30;99.90
13835;DHT22;6988;52.614;13.500;2022-08-19T05:36:15;20.40;99.90
13835;DHT22;6988;52.614;13.500;2022-08-19T05:41:12;20.50;99.90
13835;DHT22;6988;52.614;13.500;2022-08-19T05:46:05;20.50;99.90
13835;DHT22;6988;52.614;13.500;2022-08-19T05:51:03;20.60;99.90
13835;DHT22;6988;52.614;13.500;2022-08-19T05:55:56;20.70;99.90
13835;DHT22;6988;52.614;13.500;2022-08-19T06:00:50;20.70;99.90
13835;DHT22;6988;52.614;13.500;2022-08-19T06:05:42;20.70;99.90
13835;DHT22;6988;52.614;13.500;2022-08-19T06:10:34;20.80;99.90
13835;DHT22;6988;52.614;13.500;2022-08-19T06:15:27;20.90;99.90
13835;DHT22;6988;52.614;13.500;2022-08-19T06:20:20;21.00;99.90
13835;DHT22;6988;52.614;13.500;2022-08-19T06:25:13;21.10;99.90
13835;DHT22;6988;52.614;13.500;2022-08-19T06:30:07;21.10;99.90
13835;DHT22;6988;52.614;13.500;2022-08-19T06:35:00;21.20;99.90
13835;DHT22;6988;52.614;13.500;2022-08-19T06:39:54;21.30;99.90
13835;DHT22;6988;52.614;13.500;2022-08-19T06:44:47;21.30;99.90
13835;DHT22;6988;52.614;13.500;2022-08-19T06:49:39;21.50;99.90
13835;DHT22;6988;52.614;13.500;2022-08-19T06:54:31;21.50;99.90
13835;DHT22;6988;52.614;13.500;2022-08-19T06:59:25;21.60;99.90
13835;DHT22;6988;52.614;13.500;2022-08-19T07:04:21;21.70;99.90
13835;DHT22;6988;52.614;13.500;2022-08-19T07:09:17;21.70;99.90
13835;DHT22;6988;52.614;13.500;2022-08-19T07:14:09;21.80;99.90
13835;DHT22;6988;52.614;13.500;2022-08-19T07:19:02;21.90;99.90
13835;DHT22;6988;52.614;13.500;2022-08-19T07:23:55;22.00;99.90
13835;DHT22;6988;52.614;13.500;2022-08-19T07:28:48;22.10;99.90
13835;DHT22;6988;52.614;13.500;2022-08-19T07:33:41;22.20;99.90
13835;DHT22;6988;52.614;13.500;2022-08-19T07:38:34;22.30;99.90
13835;DHT22;6988;52.614;13.500;2022-08-19T07:43:27;22.40;99.90
13835;DHT22;6988;52.614;13.500;2022-08-19T07:48:19;22.40;99.90
13835;DHT22;6988;52.614;13.500;2022-08-19T07:53:11;22.40;99.90
13835;DHT22;6988;52.614;13.500;2022-08-19T07:58:05;22.30;99.90
13835;DHT22;6988;52.614;13.500;2022-08-19T08:02:56;22.30;99.90
13835;DHT22;6988;52.614;13.500;2022-08-19T08:07:48;22.30;99.90
13835;DHT22;6988;52.614;13.500;2022-08-19T08:12:59;22.30;99.90
13835;DHT22;6988;52.614;13.500;2022-08-19T08:17:52;22.40;99.90
13835;DHT22;6988;52.614;13.500;2022-08-19T08:22:46;22.50;99.90
13835;DHT22;6988;52.614;13.500;2022-08-19T08:27:56;22.50;99.90
13835;DHT22;6988;52.614;13.500;2022-08-19T08:32:51;22.50;99.90
13835;DHT22;6988;52.614;13.500;2022-08-19T08:37:45;22.60;99.90
13835;DHT22;6988;52.614;13.500;2022-08-19T08:42:46;22.70;99.90
13835;DHT22;6988;52.614;13.500;2022-08-19T08:47:48;22.80;99.90
13835;DHT22;6988;52.614;13.500;2022-08-19T08:52:47;22.80;99.90
13835;DHT22;6988;52.614;13.500;2022-08-19T08:57:49;23.00;99.90
13835;DHT22;6988;52.614;13.500;2022-08-19T09:02:45;23.00;99.90
13835;DHT22;6988;52.614;13.500;2022-08-19T09:07:42;23.10;99.90
13835;DHT22;6988;52.614;13.500;2022-08-19T09:12:47;23.30;99.90
13835;DHT22;6988;52.614;13.500;2022-08-19T09:17:46;23.70;99.90
13835;DHT22;6988;52.614;13.500;2022-08-19T09:22:39;24.00;99.90
13835;DHT22;6988;52.614;13.500;2022-08-19T09:27:36;24.10;99.90
13835;DHT22;6988;52.614;13.500;2022-08-19T09:32:29;24.20;99.90
13835;DHT22;6988;52.614;13.500;2022-08-19T09:37:21;24.50;99.90
13835;DHT22;6988;52.614;13.500;2022-08-19T09:42:14;24.80;99.90
13835;DHT22;6988;52.614;13.500;2022-08-19T09:47:09;25.10;99.90
13835;DHT22;6988;52.614;13.500;2022-08-19T09:52:03;25.60;99.90
13835;DHT22;6988;52.614;13.500;2022-08-19T09:56:57;25.70;99.90
13835;DHT22;6988;52.614;13.500;2022-08-19T10:01:51;25.80;99.90
13835;DHT22;6988;52.614;13.500;2022-08-19T10:06:44;25.80;99.90
13835;DHT22;6988;52.614;13.500;2022-08-19T10:11:40;25.80;99.90
13835;DHT22;6988;52.614;13.500;2022-08-19T10:16:33;25.60;99.90
13835;DHT22;6988;52.614;13.500;2022-08-19T10:21:29;25.70;99.90
13835;DHT22;6988;52.614;13.500;2022-08-19T10:26:28;25.70;99.90
13835;DHT22;6988;52.614;13.500;2022-08-19T10:31:26;25.60;99.90
13835;DHT22;6988;52.614;13.500;2022-08-19T10:36:23;25.50;99.90
13835;DHT22;6988;52.614;13.500;2022-08-19T10:41:18;25.50;99.90
13835;DHT22;6988;52.614;13.500;2022-08-19T10:46:15;25.50;99.90
13835;DHT22;6988;52.614;13.500;2022-08-19T10:51:07;25.40;99.90
13835;DHT22;6988;52.614;13.500;2022-08-19T10:56:18;25.50;99.90
13835;DHT22;6988;52.614;13.500;2022-08-19T11:01:30;25.60;99.90
13835;DHT22;6988;52.614;13.500;2022-08-19T11:06:24;25.60;99.90
13835;DHT22;6988;52.614;13.500;2022-08-19T11:11:16;25.50;99.90
13835;DHT22;6988;52.614;13.500;2022-08-19T11:16:11;25.50;99.90
13835;DHT22;6988;52.614;13.500;2022-08-19T11:21:08;25.40;99.90
13835;DHT22;6988;52.614;13.500;2022-08-19T11:26:07;25.30;99.90
13835;DHT22;6988;52.614;13.500;2022-08-19T11:30:59;25.10;99.90
13835;DHT22;6988;52.614;13.500;2022-08-19T11:35:52;24.90;99.90
13835;DHT22;6988;52.614;13.500;2022-08-19T11:40:54;24.80;99.90
13835;DHT22;6988;52.614;13.500;2022-08-19T11:45:47;24.70;99.90
13835;DHT22;6988;52.614;13.500;2022-08-19T11:50:39;24.60;99.90
13835;DHT22;6988;52.614;13.500;2022-08-19T11:55:32;24.50;99.90
13835;DHT22;6988;52.614;13.500;2022-08-19T12:00:30;24.50;99.90
13835;DHT22;6988;52.614;13.500;2022-08-19T12:05:22;24.40;99.90
13835;DHT22;6988;52.614;13.500;2022-08-19T12:10:14;24.30;99.90
13835;DHT22;6988;52.614;13.500;2022-08-19T12:15:07;24.30;99.90
13835;DHT22;6988;52.614;13.500;2022-08-19T12:20:03;24.30;99.90
13835;DHT22;6988;52.614;13.500;2022-08-19T12:24:56;24.40;99.90
13835;DHT22;6988;52.614;13.500;2022-08-19T12:29:48;24.60;99.90
13835;DHT22;6988;52.614;13.500;2022-08-19T12:34:40;24.90;99.90
13835;DHT22;6988;52.614;13.500;2022-08-19T12:39:36;24.90;99.90
13835;DHT22;6988;52.614;13.500;2022-08-19T12:44:29;25.20;99.90
13835;DHT22;6988;52.614;13.500;2022-08-19T12:49:22;25.70;99.90
13835;DHT22;6988;52.614;13.500;2022-08-19T12:54:15;25.80;99.90
13835;DHT22;6988;52.614;13.500;2022-08-19T12:59:09;25.70;99.90
13835;DHT22;6988;52.614;13.500;2022-08-19T13:04:01;25.60;99.90
13835;DHT22;6988;52.614;13.500;2022-08-19T13:08:54;25.70;99.90
13835;DHT22;6988;52.614;13.500;2022-08-19T13:13:48;25.80;99.90
13835;DHT22;6988;52.614;13.500;2022-08-19T13:18:44;26.00;99.90
13835;DHT22;6988;52.614;13.500;2022-08-19T13:23:37;26.20;99.90
13835;DHT22;6988;52.614;13.500;2022-08-19T13:28:30;26.20;99.90
13835;DHT22;6988;52.614;13.500;2022-08-19T13:33:37;26.40;99.90
13835;DHT22;6988;52.614;13.500;2022-08-19T13:38:30;26.40;99.90
13835;DHT22;6988;52.614;13.500;2022-08-19T13:43:25;26.20;99.90
13835;DHT22;6988;52.614;13.500;2022-08-19T13:48:18;26.20;99.90
13835;DHT22;6988;52.614;13.500;2022-08-19T13:53:10;26.30;99.90
13835;DHT22;6988;52.614;13.500;2022-08-19T13:58:04;26.50;99.90
13835;DHT22;6988;52.614;13.500;2022-08-19T14:02:57;26.60;99.90
13835;DHT22;6988;52.614;13.500;2022-08-19T14:07:48;26.50;99.90
13835;DHT22;6988;52.614;13.500;2022-08-19T14:12:41;26.70;99.90
13835;DHT22;6988;52.614;13.500;2022-08-19T14:17:34;26.70;99.90
13835;DHT22;6988;52.614;13.500;2022-08-19T14:22:29;26.90;99.90
13835;DHT22;6988;52.614;13.500;2022-08-19T14:27:21;26.80;99.90
13835;DHT22;6988;52.614;13.500;2022-08-19T14:32:15;26.60;99.90
13835;DHT22;6988;52.614;13.500;2022-08-19T14:37:08;26.50;99.90
13835;DHT22;6988;52.614;13.500;2022-08-19T14:42:00;26.50;99.90
13835;DHT22;6988;52.614;13.500;2022-08-19T14:46:52;26.50;99.90
13835;DHT22;6988;52.614;13.500;2022-08-19T14:51:44;26.30;99.90
13835;DHT22;6988;52.614;13.500;2022-08-19T14:56:40;26.00;99.90
13835;DHT22;6988;52.614;13.500;2022-08-19T15:01:32;25.90;99.90
13835;DHT22;6988;52.614;13.500;2022-08-19T15:06:25;25.60;99.90
13835;DHT22;6988;52.614;13.500;2022-08-19T15:11:19;25.50;99.90
13835;DHT22;6988;52.614;13.500;2022-08-19T15:16:15;25.30;99.90
13835;DHT22;6988;52.614;13.500;2022-08-19T15:21:07;25.20;99.90
13835;DHT22;6988;52.614;13.500;2022-08-19T15:25:59;25.00;99.90
13835;DHT22;6988;52.614;13.500;2022-08-19T15:30:52;24.80;99.90
13835;DHT22;6988;52.614;13.500;2022-08-19T15:35:47;24.70;99.90
13835;DHT22;6988;52.614;13.500;2022-08-19T15:40:41;24.60;99.90
13835;DHT22;6988;52.614;13.500;2022-08-19T15:45:33;24.40;99.90
13835;DHT22;6988;52.614;13.500;2022-08-19T15:50:25;24.30;99.90
13835;DHT22;6988;52.614;13.500;2022-08-19T15:55:21;24.10;99.90
13835;DHT22;6988;52.614;13.500;2022-08-19T16:00:15;24.10;99.90
13835;DHT22;6988;52.614;13.500;2022-08-19T16:05:26;24.10;99.90
13835;DHT22;6988;52.614;13.500;2022-08-19T16:10:38;24.00;99.90
13835;DHT22;6988;52.614;13.500;2022-08-19T16:15:30;23.90;99.90
13835;DHT22;6988;52.614;13.500;2022-08-19T16:20:23;23.80;99.90
13835;DHT22;6988;52.614;13.500;2022-08-19T16:25:16;23.70;99.90
13835;DHT22;6988;52.614;13.500;2022-08-19T16:30:10;23.70;99.90
13835;DHT22;6988;52.614;13.500;2022-08-19T16:35:03;23.70;99.90
13835;DHT22;6988;52.614;13.500;2022-08-19T16:39:56;23.60;99.90
13835;DHT22;6988;52.614;13.500;2022-08-19T16:44:48;23.60;99.90
13835;DHT22;6988;52.614;13.500;2022-08-19T16:49:41;23.50;99.90
13835;DHT22;6988;52.614;13.500;2022-08-19T16:54:33;23.50;99.90
13835;DHT22;6988;52.614;13.500;2022-08-19T16:59:25;23.50;99.90
13835;DHT22;6988;52.614;13.500;2022-08-19T17:04:16;23.50;99.90
13835;DHT22;6988;52.614;13.500;2022-08-19T17:09:09;23.40;99.90
13835;DHT22;6988;52.614;13.500;2022-08-19T17:14:03;23.40;99.90
13835;DHT22;6988;52.614;13.500;2022-08-19T17:18:59;23.30;99.90
13835;DHT22;6988;52.614;13.500;2022-08-19T17:23:52;23.20;99.90
13835;DHT22;6988;52.614;13.500;2022-08-19T17:28:47;23.20;99.90
13835;DHT22;6988;52.614;13.500;2022-08-19T17:33:40;23.10;99.90
13835;DHT22;6988;52.614;13.500;2022-08-19T17:38:32;23.00;99.90
13835;DHT22;6988;52.614;13.500;2022-08-19T17:43:26;23.10;99.90
13835;DHT22;6988;52.614;13.500;2022-08-19T17:48:19;23.10;99.90
13835;DHT22;6988;52.614;13.500;2022-08-19T17:53:11;22.90;99.90
13835;DHT22;6988;52.614;13.500;2022-08-19T17:58:03;22.80;99.90
13835;DHT22;6988;52.614;13.500;2022-08-19T18:02:58;22.80;99.90
13835;DHT22;6988;52.614;13.500;2022-08-19T18:07:54;22.50;99.90
13835;DHT22;6988;52.614;13.500;2022-08-19T18:12:46;22.60;99.90
13835;DHT22;6988;52.614;13.500;2022-08-19T18:17:38;22.60;99.90
13835;DHT22;6988;52.614;13.500;2022-08-19T18:22:32;22.60;99.90
13835;DHT22;6988;52.614;13.500;2022-08-19T18:27:27;22.50;99.90
13835;DHT22;6988;52.614;13.500;2022-08-19T18:32:19;22.50;99.90
13835;DHT22;6988;52.614;13.500;2022-08-19T18:37:12;22.50;99.90
13835;DHT22;6988;52.614;13.500;2022-08-19T18:42:04;22.50;99.90
13835;DHT22;6988;52.614;13.500;2022-08-19T18:47:15;22.40;99.90
13835;DHT22;6988;52.614;13.500;2022-08-19T18:52:24;22.30;99.90
13835;DHT22;6988;52.614;13.500;2022-08-19T18:57:17;22.20;99.90
13835;DHT22;6988;52.614;13.500;2022-08-19T19:02:15;22.20;99.90
13835;DHT22;6988;52.614;13.500;2022-08-19T19:07:07;22.20;99.90
13835;DHT22;6988;52.614;13.500;2022-08-19T19:12:01;22.10;99.90
13835;DHT22;6988;52.614;13.500;2022-08-19T19:16:55;22.00;99.90
13835;DHT22;6988;52.614;13.500;2022-08-19T19:21:49;22.00;99.90
13835;DHT22;6988;52.614;13.500;2022-08-19T19:26:42;22.00;99.90
13835;DHT22;6988;52.614;13.500;2022-08-19T19:31:35;21.90;99.90
13835;DHT22;6988;52.614;13.500;2022-08-19T19:36:27;22.00;99.90
13835;DHT22;6988;52.614;13.500;2022-08-19T19:41:21;21.90;99.90
13835;DHT22;6988;52.614;13.500;2022-08-19T19:46:14;21.90;99.90
13835;DHT22;6988;52.614;13.500;2022-08-19T19:51:07;21.80;99.90
13835;DHT22;6988;52.614;13.500;2022-08-19T19:55:58;21.80;99.90
13835;DHT22;6988;52.614;13.500;2022-08-19T20:00:55;21.80;99.90
13835;DHT22;6988;52.614;13.500;2022-08-19T20:05:48;21.70;99.90
13835;DHT22;6988;52.614;13.500;2022-08-19T20:10:41;21.70;99.90
13835;DHT22;6988;52.614;13.500;2022-08-19T20:15:36;21.70;99.90
13835;DHT22;6988;52.614;13.500;2022-08-19T20:20:30;21.70;99.90
13835;DHT22;6988;52.614;13.500;2022-08-19T20:25:22;21.70;99.90
13835;DHT22;6988;52.614;13.500;2022-08-19T20:30:17;21.70;99.90
13835;DHT22;6988;52.614;13.500;2022-08-19T20:35:11;21.70;99.90
13835;DHT22;6988;52.614;13.500;2022-08-19T20:40:06;21.70;99.90
13835;DHT22;6988;52.614;13.500;2022-08-19T20:45:00;21.70;99.90
13835;DHT22;6988;52.614;13.500;2022-08-19T20:49:52;21.70;99.90
13835;DHT22;6988;52.614;13.500;2022-08-19T20:54:44;21.70;99.90
13835;DHT22;6988;52.614;13.500;2022-08-19T20:59:37;21.70;99.90
13835;DHT22;6988;52.614;13.500;2022-08-19T21:04:29;21.70;99.90
13835;DHT22;6988;52.614;13.500;2022-08-19T21:09:21;21.60;99.90
13835;DHT22;6988;52.614;13.500;2022-08-19T21:14:12;21.60;99.90
13835;DHT22;6988;52.614;13.500;2022-08-19T21:19:05;21.60;99.90
13835;DHT22;6988;52.614;13.500;2022-08-19T21:23:57;21.40;99.90
13835;DHT22;6988;52.614;13.500;2022-08-19T21:28:49;21.60;99.90
13835;DHT22;6988;52.614;13.500;2022-08-19T21:33:41;21.50;99.90
13835;DHT22;6988;52.614;13.500;2022-08-19T21:38:34;21.50;99.90
13835;DHT22;6988;52.614;13.500;2022-08-19T21:43:27;21.50;99.90
13835;DHT22;6988;52.614;13.500;2022-08-19T22:03:37;21.40;99.90
13835;DHT22;6988;52.614;13.500;2022-08-19T22:08:29;21.30;99.90
13835;DHT22;6988;52.614;13.500;2022-08-19T22:13:21;21.30;99.90
13835;DHT22;6988;52.614;13.500;2022-08-19T22:18:12;21.30;99.90
13835;DHT22;6988;52.614;13.500;2022-08-19T22:23:08;21.30;99.90
13835;DHT22;6988;52.614;13.500;2022-08-19T22:28:02;21.30;99.90
13835;DHT22;6988;52.614;13.500;2022-08-19T22:32:57;21.30;99.90
13835;DHT22;6988;52.614;13.500;2022-08-19T22:37:50;21.30;99.90
13835;DHT22;6988;52.614;13.500;2022-08-19T22:42:44;21.30;99.90
13835;DHT22;6988;52.614;13.500;2022-08-19T22:47:36;21.30;99.90
13835;DHT22;6988;52.614;13.500;2022-08-19T22:52:29;21.20;99.90
13835;DHT22;6988;52.614;13.500;2022-08-19T22:57:21;21.30;99.90
13835;DHT22;6988;52.614;13.500;2022-08-19T23:02:18;21.30;99.90
13835;DHT22;6988;52.614;13.500;2022-08-19T23:07:12;21.20;99.90
13835;DHT22;6988;52.614;13.500;2022-08-19T23:12:04;21.20;99.90
13835;DHT22;6988;52.614;13.500;2022-08-19T23:16:57;21.20;99.90
13835;DHT22;6988;52.614;13.500;2022-08-19T23:21:50;21.20;99.90
13835;DHT22;6988;52.614;13.500;2022-08-19T23:26:42;21.20;99.90
13835;DHT22;6988;52.614;13.500;2022-08-19T23:31:54;21.20;99.90
13835;DHT22;6988;52.614;13.500;2022-08-19T23:36:46;21.20;99.90
13835;DHT22;6988;52.614;13.500;2022-08-19T23:41:41;21.20;99.90
13835;DHT22;6988;52.614;13.500;2022-08-19T23:46:33;21.20;99.90
13835;DHT22;6988;52.614;13.500;2022-08-19T23:51:25;21.10;99.90
13835;DHT22;6988;52.614;13.500;2022-08-19T23:56:17;21.10;99.90
